Bielsa, Aragón

latitud= 42° 37' 48''N |longitud= 000° 13' 29''E
990 metros sobre el nivel del mar | datos mensuales

Fecha, hora, temperatura, viento dirección y velocidad, humedad y presión.

  • 22-11-2017 09:00:00 | 0.20°C | Noroeste |5.00 km/h | 82.00% | 0.00 hPa
  • 22-11-2017 08:00:00 | 0.10°C | Noroeste |6.00 km/h | 81.00% | 0.00 hPa
  • 22-11-2017 07:00:00 | -0.10°C | Noroeste |3.00 km/h | 85.00% | 0.00 hPa
  • 22-11-2017 06:00:00 | 0.30°C | Noroeste |3.00 km/h | 80.00% | 0.00 hPa
  • 22-11-2017 05:00:00 | -0.10°C | Noroeste |4.00 km/h | 85.00% | 0.00 hPa
  • 22-11-2017 04:00:00 | 0.10°C | Noroeste |3.00 km/h | 82.00% | 0.00 hPa
  • 22-11-2017 03:00:00 | 0.30°C | Noroeste |3.00 km/h | 81.00% | 0.00 hPa
  • 22-11-2017 02:00:00 | 0.40°C | Noroeste |3.00 km/h | 82.00% | 0.00 hPa
  • 22-11-2017 01:00:00 | 0.50°C | Noroeste |3.00 km/h | 82.00% | 0.00 hPa
  • 22-11-2017 00:00:00 | 1.00°C | Noroeste |5.00 km/h | 78.00% | 0.00 hPa
  • 21-11-2017 23:00:00 | 1.20°C | Noroeste |3.00 km/h | 79.00% | 0.00 hPa
  • 21-11-2017 22:00:00 | 1.30°C | Calma |0.00 km/h | 77.00% | 0.00 hPa
  • 21-11-2017 21:00:00 | 2.20°C | Noroeste |3.00 km/h | 73.00% | 0.00 hPa
  • 21-11-2017 20:00:00 | 2.70°C | Norte |2.00 km/h | 73.00% | 0.00 hPa
  • 21-11-2017 19:00:00 | 3.30°C | Noroeste |3.00 km/h | 72.00% | 0.00 hPa
  • 21-11-2017 18:00:00 | 4.60°C | Noroeste |4.00 km/h | 69.00% | 0.00 hPa
  • 21-11-2017 17:00:00 | 6.30°C | Noroeste |6.00 km/h | 62.00% | 0.00 hPa
  • 21-11-2017 16:00:00 | 7.50°C | Noroeste |8.00 km/h | 58.00% | 0.00 hPa
  • 21-11-2017 15:00:00 | 9.60°C | Noroeste |7.00 km/h | 53.00% | 0.00 hPa
  • 21-11-2017 14:00:00 | 12.10°C | Noroeste |4.00 km/h | 46.00% | 0.00 hPa
  • 21-11-2017 13:00:00 | 15.20°C | Oeste |3.00 km/h | 38.00% | 0.00 hPa
  • 21-11-2017 12:00:00 | 13.90°C | Oeste |3.00 km/h | 41.00% | 0.00 hPa
  • 21-11-2017 11:00:00 | 11.40°C | Sudoeste |2.00 km/h | 43.00% | 0.00 hPa
  • 21-11-2017 10:00:00 | 4.30°C | Oeste |3.00 km/h | 73.00% | 0.00 hPa